Time;durP1;ratioP1;P1;durP2;ratioP2;P2;SDS_P1;SDS_P2;PMS_P1;PMS_P2;Temp;Humidity;BMP_temperature;BMP_pressure;BME280_temperature;BME280_humidity;BME280_pressure;Samples;Min_cycle;Max_cycle;Signal;HPM_P1;HPM_P2
2021/12/26 00:00:14;;;;;;;6.43;3.08;;;;;;;-146.64;97.82;39356.22;4998599;28;20041;-73
2021/12/26 00:02:39;;;;;;;3.85;3.08;;;;;;;-146.64;94.33;39345.97;5018224;28;20029;-72
2021/12/26 00:05:05;;;;;;;4.15;2.90;;;;;;;-146.64;94.24;39321.41;5013211;28;20026;-72
2021/12/26 00:07:30;;;;;;;5.18;3.15;;;;;;;-146.64;94.70;39354.16;5018283;28;20033;-72
2021/12/26 00:09:56;;;;;;;5.00;2.85;;;;;;;-146.64;94.42;39350.06;5036666;28;20049;-72
2021/12/26 00:12:21;;;;;;;5.45;3.20;;;;;;;-146.64;95.47;39370.53;5002106;28;20105;-72
2021/12/26 00:14:47;;;;;;;5.57;2.80;;;;;;;-146.64;95.57;39329.59;5002468;28;20025;-73
2021/12/26 00:17:12;;;;;;;8.18;3.13;;;;;;;-146.64;93.34;39317.31;4998737;28;20497;-72
2021/12/26 00:19:38;;;;;;;3.60;2.63;;;;;;;-146.64;94.15;39370.53;5035521;28;20443;-72
2021/12/26 00:22:03;;;;;;;5.85;2.67;;;;;;;-146.64;93.98;39345.97;5035406;28;20480;-72
2021/12/26 00:24:29;;;;;;;8.02;3.50;;;;;;;-146.64;94.12;39309.13;5011293;28;20033;-72
2021/12/26 00:26:54;;;;;;;6.22;3.13;;;;;;;-146.64;94.15;39323.47;5017778;28;20022;-71
2021/12/26 00:29:19;;;;;;;4.90;3.47;;;;;;;-146.64;95.40;39325.50;5006799;28;20413;-73
2021/12/26 00:31:45;;;;;;;8.85;3.83;;;;;;;-146.64;94.42;39339.84;5034782;28;20063;-72
2021/12/26 00:34:10;;;;;;;7.03;4.15;;;;;;;-146.64;95.60;39345.97;5035494;28;20063;-72
2021/12/26 00:36:35;;;;;;;7.05;3.92;;;;;;;-146.64;97.02;39364.41;5031819;28;20025;-72
2021/12/26 00:39:01;;;;;;;7.57;3.97;;;;;;;-146.64;97.02;39354.16;5017525;28;20075;-72
2021/12/26 00:41:26;;;;;;;8.05;3.78;;;;;;;-146.64;96.17;39358.25;4998687;28;20036;-72
2021/12/26 00:43:54;;;;;;;6.50;3.78;;;;;;;-146.64;97.70;39333.69;4997703;28;20055;-71
2021/12/26 00:46:20;;;;;;;6.50;3.40;;;;;;;-146.64;97.98;39362.34;5031002;28;20037;-71
2021/12/26 00:48:45;;;;;;;3.50;2.70;;;;;;;-146.64;96.92;39350.06;5017109;28;20029;-71
2021/12/26 00:51:10;;;;;;;8.18;3.50;;;;;;;-146.64;97.29;39354.16;4997392;28;20035;-72
2021/12/26 00:53:36;;;;;;;5.60;3.72;;;;;;;-146.64;99.80;39362.34;5015246;28;20394;-72
2021/12/26 00:56:02;;;;;;;6.78;3.38;;;;;;;-146.64;98.10;39370.53;5017296;28;20045;-72
2021/12/26 00:58:27;;;;;;;4.20;2.95;;;;;;;-146.64;97.50;39358.25;5034065;28;20080;-70
2021/12/26 01:00:53;;;;;;;5.47;2.95;;;;;;;-146.64;97.26;39341.88;5016531;28;20029;-71
2021/12/26 01:03:19;;;;;;;5.47;3.10;;;;;;;-146.64;98.39;39343.94;5016376;28;20393;-73
2021/12/26 01:05:47;;;;;;;6.20;3.10;;;;;;;-146.64;98.43;39292.75;4985881;28;20056;-72
2021/12/26 01:08:14;;;;;;;4.55;3.05;;;;;;;-146.64;97.92;39350.06;4997202;28;20041;-71
2021/12/26 01:10:49;;;;;;;5.05;3.78;;;;;;;-146.64;97.73;39350.06;5013465;28;20033;-70
2021/12/26 01:13:37;;;;;;;4.40;3.10;;;;;;;-146.64;99.51;39313.22;5009095;28;20429;-72
2021/12/26 01:16:07;;;;;;;3.45;2.72;;;;;;;-146.64;96.60;39366.44;5010022;28;20045;-71
2021/12/26 01:18:35;;;;;;;3.33;2.50;;;;;;;-146.64;97.86;39350.06;5004885;28;20406;-72
2021/12/26 01:21:15;;;;;;;8.10;2.97;;;;;;;-146.64;97.89;39362.34;5007758;28;20026;-73
2021/12/26 01:23:41;;;;;;;4.15;2.90;;;;;;;-146.64;98.65;39348.03;5010368;28;20030;-73
2021/12/26 01:26:06;;;;;;;6.72;2.88;;;;;;;-146.64;98.12;39354.16;5012649;28;20041;-72
2021/12/26 01:28:32;;;;;;;4.03;2.97;;;;;;;-146.64;97.27;39350.06;5012843;28;20490;-72
2021/12/26 01:30:59;;;;;;;3.92;2.63;;;;;;;-146.64;97.19;39329.59;5009086;28;20029;-72
2021/12/26 01:33:25;;;;;;;4.65;2.88;;;;;;;-146.64;97.97;39345.97;5028617;28;20045;-71
2021/12/26 01:35:51;;;;;;;4.53;3.05;;;;;;;-146.64;97.45;39341.88;5012052;28;20041;-72
2021/12/26 01:38:17;;;;;;;3.85;2.80;;;;;;;-146.64;96.17;39339.84;5013893;28;20044;-72
2021/12/26 01:40:54;;;;;;;9.43;2.83;;;;;;;-146.64;97.48;39360.31;5012061;28;20378;-72
2021/12/26 01:43:24;;;;;;;4.53;2.60;;;;;;;-146.64;96.01;39374.63;5021977;28;20025;-72
2021/12/26 01:45:50;;;;;;;4.10;2.78;;;;;;;-146.64;98.14;39372.56;4992225;28;20068;-72
2021/12/26 01:48:16;;;;;;;9.07;2.90;;;;;;;-146.64;97.27;39370.53;4994968;28;20037;-72
2021/12/26 01:50:42;;;;;;;4.00;2.90;;;;;;;-146.64;95.68;39370.53;5007346;28;20029;-72
2021/12/26 01:53:09;;;;;;;4.50;2.77;;;;;;;-146.64;97.09;39391.00;5011679;28;20038;-71
2021/12/26 01:55:44;;;;;;;3.30;2.58;;;;;;;-146.64;95.71;39358.25;5011765;28;20068;-72
2021/12/26 01:58:14;;;;;;;6.43;2.78;;;;;;;-146.64;94.73;39366.44;4983640;28;20132;-72
2021/12/26 02:00:42;;;;;;;3.65;2.67;;;;;;;-146.64;96.75;39358.25;5012363;28;20324;-72
2021/12/26 02:03:07;;;;;;;5.80;3.03;;;;;;;-146.64;96.55;39341.88;5001716;28;20042;-72
2021/12/26 02:05:33;;;;;;;3.80;2.63;;;;;;;-146.64;95.53;39354.16;5010182;28;20389;-72
2021/12/26 02:07:59;;;;;;;5.25;3.05;;;;;;;-146.64;96.07;39376.66;4982672;28;20029;-72
2021/12/26 02:10:25;;;;;;;4.60;2.88;;;;;;;-146.64;92.78;39329.59;4976754;28;20065;-72
2021/12/26 02:12:52;;;;;;;4.32;3.20;;;;;;;-146.64;95.20;39323.47;5002704;28;20236;-72
2021/12/26 02:15:17;;;;;;;4.35;2.90;;;;;;;-146.64;95.20;39388.94;4997425;28;20022;-71
2021/12/26 02:17:43;;;;;;;4.13;2.83;;;;;;;-146.64;96.31;39329.59;4978974;28;20042;-71
2021/12/26 02:20:55;;;;;;;4.18;2.83;;;;;;;-146.64;94.99;39329.59;4999032;28;20029;-72
2021/12/26 02:23:28;;;;;;;3.58;2.60;;;;;;;-146.64;93.75;39362.34;4997119;28;20121;-72
2021/12/26 02:28:22;;;;;;;4.40;3.28;;;;;;;-146.64;95.59;39329.59;4992890;28;20126;-72
2021/12/26 02:30:48;;;;;;;5.17;3.07;;;;;;;-146.64;97.81;39333.69;4992860;28;20547;-72
2021/12/26 02:33:15;;;;;;;3.93;2.40;;;;;;;-146.64;96.53;39362.34;4999654;28;20029;-71
2021/12/26 02:35:41;;;;;;;4.53;2.75;;;;;;;-146.64;96.20;39366.44;4975732;28;20030;-72
2021/12/26 02:38:08;;;;;;;2.78;2.25;;;;;;;-146.64;97.61;39343.94;5003916;28;20386;-72
2021/12/26 02:40:35;;;;;;;3.67;2.63;;;;;;;-146.64;96.56;39358.25;4998938;28;20404;-72
2021/12/26 02:43:00;;;;;;;5.90;3.03;;;;;;;-146.64;97.42;39354.16;5000416;28;20429;-72
2021/12/26 02:45:26;;;;;;;3.97;2.70;;;;;;;-146.64;97.18;39352.13;5000224;28;20027;-72
2021/12/26 02:47:53;;;;;;;7.10;3.00;;;;;;;-146.64;98.41;39354.16;4974848;28;20542;-72
2021/12/26 02:50:28;;;;;;;3.55;2.70;;;;;;;-146.64;97.42;39329.59;4977223;28;20034;-72
2021/12/26 02:52:54;;;;;;;4.60;2.88;;;;;;;-146.64;98.22;39368.50;5014272;28;20047;-72
2021/12/26 02:55:21;;;;;;;4.78;3.15;;;;;;;-146.64;98.80;39292.75;5001004;28;20080;-72
2021/12/26 02:57:56;;;;;;;3.50;2.60;;;;;;;-146.64;98.29;39339.84;4994411;28;20053;-73
2021/12/26 03:00:25;;;;;;;3.42;2.88;;;;;;;-146.64;99.25;39333.69;4999051;28;20444;-72
2021/12/26 03:02:53;;;;;;;3.67;3.20;;;;;;;-146.64;100.00;39362.34;5000265;28;20365;-72
2021/12/26 03:05:19;;;;;;;4.85;2.90;;;;;;;-146.64;98.32;39329.59;4962976;28;20030;-72
2021/12/26 03:07:48;;;;;;;3.83;2.35;;;;;;;-146.64;100.00;39374.63;4997857;28;20041;-73
2021/12/26 03:10:22;;;;;;;4.93;3.00;;;;;;;-146.64;100.00;39366.44;4995795;28;20047;-72
2021/12/26 03:12:49;;;;;;;4.47;2.97;;;;;;;-146.64;100.00;39360.31;4994096;28;20037;-72
2021/12/26 03:15:14;;;;;;;8.80;3.33;;;;;;;-146.64;100.00;39384.84;5008320;28;20057;-72
2021/12/26 03:17:41;;;;;;;5.53;3.20;;;;;;;-146.64;100.00;39374.63;5011381;28;20824;-72
2021/12/26 03:20:11;;;;;;;8.07;3.42;;;;;;;-146.64;100.00;39370.53;5017558;28;20033;-73
2021/12/26 03:22:37;;;;;;;4.47;3.20;;;;;;;-146.64;99.85;39374.63;5028021;28;20033;-72
2021/12/26 03:25:03;;;;;;;3.63;2.67;;;;;;;-146.64;100.00;39388.94;5035741;28;20724;-72
2021/12/26 03:27:29;;;;;;;4.88;3.17;;;;;;;-146.64;100.00;39370.53;5040944;28;20116;-73
2021/12/26 03:29:54;;;;;;;5.15;3.35;;;;;;;-146.64;100.00;39399.19;5021635;28;20116;-72
2021/12/26 03:32:20;;;;;;;8.13;3.17;;;;;;;-146.64;100.00;39380.75;5034445;28;20034;-72
2021/12/26 03:34:47;;;;;;;6.32;3.25;;;;;;;-146.64;100.00;39366.44;4986375;28;20086;-72
2021/12/26 03:37:12;;;;;;;;;;;;;;;-146.64;100.00;39341.88;5014718;28;20030;-72
2021/12/26 03:39:37;;;;;;;6.57;2.92;;;;;;;-146.64;100.00;39370.53;5020623;28;19931;-72
2021/12/26 03:42:03;;;;;;;5.05;2.90;;;;;;;-146.64;100.00;39358.25;5034448;28;20067;-72
2021/12/26 03:44:28;;;;;;;5.80;3.25;;;;;;;-146.64;100.00;39384.84;5000637;28;20377;-73
2021/12/26 03:46:54;;;;;;;5.38;3.00;;;;;;;-146.64;100.00;39370.53;5032847;28;20401;-72
2021/12/26 03:49:19;;;;;;;4.28;2.80;;;;;;;-146.64;100.00;39391.00;5016651;28;20033;-72
2021/12/26 03:51:44;;;;;;;4.85;3.40;;;;;;;-146.64;100.00;39374.63;5033796;28;20025;-71
2021/12/26 03:54:10;;;;;;;6.30;3.20;;;;;;;-146.64;100.00;39395.09;5014858;28;20082;-71
2021/12/26 03:56:35;;;;;;;4.55;2.90;;;;;;;-146.64;100.00;39391.00;5010463;28;20488;-71
2021/12/26 03:59:02;;;;;;;7.15;2.78;;;;;;;-146.64;100.00;39374.63;5015867;28;20712;-71
2021/12/26 04:01:27;;;;;;;5.85;2.90;;;;;;;-146.64;100.00;39382.81;5015589;28;20022;-71
2021/12/26 04:03:54;;;;;;;4.70;3.13;;;;;;;-146.64;100.00;39403.28;5032961;28;20033;-71
2021/12/26 04:06:19;;;;;;;6.13;3.47;;;;;;;-146.64;100.00;39411.47;5015801;28;20051;-71
2021/12/26 04:08:45;;;;;;;8.18;3.55;;;;;;;-146.64;100.00;39343.94;5033623;28;20042;-71
2021/12/26 04:11:10;;;;;;;5.25;3.35;;;;;;;-146.64;100.00;39407.38;5011092;28;20033;-71
2021/12/26 04:13:36;;;;;;;4.25;3.05;;;;;;;-146.64;100.00;39407.38;5015270;28;20060;-71
2021/12/26 04:16:02;;;;;;;6.30;2.83;;;;;;;-146.64;100.00;39391.00;4998708;28;20080;-72
2021/12/26 04:18:28;;;;;;;4.35;2.92;;;;;;;-146.64;100.00;39411.47;5014510;28;20036;-71
2021/12/26 04:20:53;;;;;;;5.07;3.35;;;;;;;-146.64;100.00;39411.47;5015575;28;20045;-71
2021/12/26 04:23:18;;;;;;;6.97;3.17;;;;;;;-146.64;100.00;39415.56;5015545;28;20033;-71
2021/12/26 04:25:45;;;;;;;3.50;2.70;;;;;;;-146.64;100.00;39423.75;5032801;28;20037;-71
2021/12/26 04:28:11;;;;;;;4.97;3.00;;;;;;;-146.64;100.00;39415.56;4998169;28;20080;-71
2021/12/26 04:30:37;;;;;;;5.85;2.58;;;;;;;-146.64;100.00;39423.75;5015599;28;20439;-71
2021/12/26 04:33:04;;;;;;;4.95;3.10;;;;;;;-146.64;100.00;39391.00;5021115;28;20042;-73
2021/12/26 04:35:30;;;;;;;3.28;2.97;;;;;;;-146.64;100.00;39354.16;5012746;28;20034;-71
2021/12/26 04:37:55;;;;;;;4.15;3.20;;;;;;;-146.64;100.00;39393.03;4996327;28;20070;-71
2021/12/26 04:40:21;;;;;;;4.88;3.13;;;;;;;-146.64;100.00;39403.28;4997409;28;20033;-71
2021/12/26 04:42:47;;;;;;;6.50;3.57;;;;;;;-146.64;100.00;39411.47;5006718;28;20025;-71
2021/12/26 04:45:14;;;;;;;5.68;3.42;;;;;;;-146.64;100.00;39415.56;5014556;28;20029;-71
2021/12/26 04:47:40;;;;;;;4.75;3.00;;;;;;;-146.64;100.00;39372.56;5015135;28;20491;-71
2021/12/26 04:50:10;;;;;;;3.75;2.97;;;;;;;-146.64;100.00;39427.84;5032588;28;20033;-71
2021/12/26 04:52:36;;;;;;;4.93;3.33;;;;;;;-146.64;100.00;39415.56;5013887;28;20492;-71
2021/12/26 04:55:05;;;;;;;6.13;2.97;;;;;;;-146.64;100.00;39442.16;5008038;28;20037;-71
2021/12/26 04:57:31;;;;;;;3.78;2.60;;;;;;;-146.64;100.00;39427.84;5029144;28;20033;-71
2021/12/26 04:59:56;;;;;;;6.07;3.47;;;;;;;-146.64;100.00;39456.50;4997140;28;20033;-70
2021/12/26 05:02:22;;;;;;;5.82;3.00;;;;;;;-146.64;100.00;39440.13;5015155;28;20032;-71
2021/12/26 05:04:47;;;;;;;4.95;3.47;;;;;;;-146.64;100.00;39425.78;5015079;28;20069;-70
2021/12/26 05:07:12;;;;;;;5.53;3.15;;;;;;;-146.64;100.00;39431.94;4995503;28;20118;-71
2021/12/26 05:09:38;;;;;;;6.53;3.50;;;;;;;-146.64;100.00;39425.78;5033606;28;20431;-72
2021/12/26 05:12:04;;;;;;;8.45;3.40;;;;;;;-146.64;100.00;39407.38;5000625;28;20489;-71
2021/12/26 05:14:29;;;;;;;6.60;3.47;;;;;;;-146.64;100.00;39460.59;5032689;28;20065;-71
2021/12/26 05:16:54;;;;;;;3.90;3.15;;;;;;;-146.64;100.00;39415.56;5024789;28;20528;-72
2021/12/26 05:19:21;;;;;;;5.43;3.30;;;;;;;-146.64;100.00;39431.94;5016128;28;20032;-71
2021/12/26 05:21:46;;;;;;;4.15;2.83;;;;;;;-146.64;100.00;39468.78;5014715;28;20052;-71
2021/12/26 05:24:11;;;;;;;5.43;3.42;;;;;;;-146.64;100.00;39464.69;4994762;28;20112;-72
2021/12/26 05:26:37;;;;;;;5.35;3.92;;;;;;;-146.64;100.00;39419.66;5026044;28;20375;-71
2021/12/26 05:29:02;;;;;;;6.07;3.70;;;;;;;-146.64;100.00;39460.59;5041337;28;20695;-71
2021/12/26 05:31:27;;;;;;;6.28;3.38;;;;;;;-146.64;100.00;39452.41;5015658;28;20045;-70
2021/12/26 05:33:53;;;;;;;3.78;2.92;;;;;;;-146.64;100.00;39460.59;5014312;28;20488;-71
2021/12/26 05:36:18;;;;;;;5.80;3.58;;;;;;;-146.64;100.00;39448.31;5015818;28;20044;-71
2021/12/26 05:38:45;;;;;;;5.03;3.33;;;;;;;-146.64;100.00;39456.50;4997483;28;20385;-70
2021/12/26 05:41:10;;;;;;;4.70;2.83;;;;;;;-146.64;100.00;39448.31;5032690;28;20047;-71
2021/12/26 05:43:36;;;;;;;6.45;3.63;;;;;;;-146.64;100.00;39485.16;5013637;28;20119;-71
2021/12/26 05:46:01;;;;;;;5.90;3.80;;;;;;;-146.64;100.00;39456.50;5031219;28;20025;-71
2021/12/26 05:48:26;;;;;;;5.97;4.07;;;;;;;-146.64;100.00;39456.50;5014651;28;20029;-71
2021/12/26 05:50:52;;;;;;;6.40;3.72;;;;;;;-146.64;100.00;39458.53;5013874;28;20129;-71
2021/12/26 05:53:18;;;;;;;4.43;3.42;;;;;;;-146.64;100.00;39427.84;5026074;28;20536;-71
2021/12/26 05:55:44;;;;;;;5.60;3.78;;;;;;;-146.64;100.00;39438.06;5016979;28;20082;-71
2021/12/26 05:58:09;;;;;;;5.00;3.35;;;;;;;-146.64;100.00;39468.78;5015456;28;20025;-71
2021/12/26 06:00:35;;;;;;;8.38;3.85;;;;;;;-146.64;100.00;39456.50;5007079;28;20021;-71
2021/12/26 06:03:00;;;;;;;5.05;3.50;;;;;;;-146.64;100.00;39472.88;5010376;28;20160;-71
2021/12/26 06:05:25;;;;;;;7.72;4.15;;;;;;;-146.64;100.00;39446.25;5023373;28;20465;-72
2021/12/26 06:07:51;;;;;;;6.35;4.07;;;;;;;-146.64;100.00;39458.53;5011140;28;20041;-71
2021/12/26 06:10:16;;;;;;;9.50;3.90;;;;;;;-146.64;100.00;39483.09;5006522;28;20071;-71
2021/12/26 06:12:41;;;;;;;5.30;3.75;;;;;;;-146.64;100.00;39462.63;5011685;28;20105;-71
2021/12/26 06:15:07;;;;;;;6.60;4.05;;;;;;;-146.64;100.00;39431.94;5013217;28;20040;-72
2021/12/26 06:17:32;;;;;;;7.43;3.90;;;;;;;-146.64;100.00;39472.88;5013211;28;20431;-71
2021/12/26 06:19:57;;;;;;;7.25;3.60;;;;;;;-146.64;100.00;39446.25;5029389;28;20021;-73
2021/12/26 06:22:23;;;;;;;13.32;4.07;;;;;;;-146.64;100.00;39436.03;5009311;28;20032;-72
2021/12/26 06:24:48;;;;;;;6.80;3.95;;;;;;;-146.64;100.00;39454.44;4996683;28;20029;-71
2021/12/26 06:27:14;;;;;;;6.53;3.90;;;;;;;-146.64;100.00;39462.63;5010096;28;20129;-72
2021/12/26 06:29:39;;;;;;;5.95;3.90;;;;;;;-146.64;100.00;39472.88;5006797;28;20049;-72
2021/12/26 06:32:05;;;;;;;4.80;3.50;;;;;;;-146.64;100.00;39476.97;5029124;28;20025;-71
2021/12/26 06:34:32;;;;;;;6.47;3.55;;;;;;;-146.64;100.00;39452.41;5032178;28;20029;-71
2021/12/26 06:36:58;;;;;;;5.90;4.03;;;;;;;-146.64;100.00;39454.44;5012595;28;20112;-71
2021/12/26 06:39:23;;;;;;;8.10;3.78;;;;;;;-146.64;100.00;39462.63;5030946;28;20051;-71
2021/12/26 06:41:48;;;;;;;5.15;3.65;;;;;;;-146.64;100.00;39427.84;5012918;28;20021;-71
2021/12/26 06:44:14;;;;;;;6.78;3.83;;;;;;;-146.64;100.00;39431.94;5031003;28;20029;-71
2021/12/26 06:46:39;;;;;;;6.00;4.07;;;;;;;-146.64;100.00;39458.53;4996193;28;20076;-71
2021/12/26 06:49:05;;;;;;;4.70;3.70;;;;;;;-146.64;100.00;39458.53;5020023;28;20030;-71
2021/12/26 06:51:31;;;;;;;5.57;3.70;;;;;;;-146.64;100.00;39493.34;5033960;28;20041;-71
2021/12/26 06:53:56;;;;;;;7.78;3.85;;;;;;;-146.64;100.00;39448.31;5034248;28;20064;-71
2021/12/26 06:56:21;;;;;;;4.97;3.28;;;;;;;-146.64;100.00;39481.06;5027587;28;20033;-73
2021/12/26 06:58:47;;;;;;;4.55;3.35;;;;;;;-146.64;100.00;39444.22;5006918;28;20465;-71
2021/12/26 07:01:12;;;;;;;5.72;3.78;;;;;;;-146.64;100.00;39493.34;5016966;28;20033;-71
2021/12/26 07:03:39;;;;;;;4.82;3.50;;;;;;;-146.64;100.00;39476.97;5016161;28;20037;-72
2021/12/26 07:06:04;;;;;;;11.02;4.32;;;;;;;-146.64;100.00;39452.41;5034984;28;20037;-71
2021/12/26 07:08:30;;;;;;;6.43;3.33;;;;;;;-146.64;100.00;39472.88;5016528;28;20064;-72
2021/12/26 07:10:56;;;;;;;4.35;3.25;;;;;;;-146.64;100.00;39456.50;5034611;28;20045;-71
2021/12/26 07:13:21;;;;;;;5.18;3.08;;;;;;;-146.64;100.00;39448.31;4996555;28;20057;-72
2021/12/26 07:15:47;;;;;;;6.32;3.70;;;;;;;-146.64;100.00;39464.69;5034191;28;20409;-71
2021/12/26 07:18:12;;;;;;;8.32;4.18;;;;;;;-146.64;100.00;39476.97;5016888;28;20481;-71
2021/12/26 07:20:37;;;;;;;6.90;3.67;;;;;;;-146.64;100.00;39472.88;5028849;28;20493;-71
2021/12/26 07:23:03;;;;;;;5.55;3.70;;;;;;;-146.64;100.00;39489.25;4998366;28;20065;-72
2021/12/26 07:25:29;;;;;;;5.97;3.88;;;;;;;-146.64;100.00;39341.88;5016394;28;20036;-71
2021/12/26 07:27:54;;;;;;;7.97;3.90;;;;;;;-146.64;100.00;39462.63;5003101;28;20022;-72
2021/12/26 07:30:19;;;;;;;6.97;4.03;;;;;;;-146.64;100.00;39493.34;4997458;28;20029;-71
2021/12/26 07:32:45;;;;;;;10.75;3.83;;;;;;;-146.64;100.00;39474.91;5015467;28;20424;-71
2021/12/26 07:35:10;;;;;;;6.40;3.67;;;;;;;-146.64;100.00;39485.16;5013227;28;20437;-71
2021/12/26 07:37:36;;;;;;;5.38;3.80;;;;;;;-146.64;100.00;39470.81;4998995;28;20072;-71
2021/12/26 07:40:02;;;;;;;5.25;3.60;;;;;;;-146.64;100.00;39464.69;5015494;28;20048;-71
2021/12/26 07:42:28;;;;;;;5.28;3.80;;;;;;;-146.64;100.00;39479.00;5008254;28;20033;-71
2021/12/26 07:44:53;;;;;;;6.15;3.80;;;;;;;-146.64;100.00;39495.38;5013854;28;22089;-71
2021/12/26 07:47:18;;;;;;;5.28;3.63;;;;;;;-146.64;100.00;39454.44;4998988;28;20041;-71
2021/12/26 07:49:44;;;;;;;8.10;3.88;;;;;;;-146.64;100.00;39501.53;5024388;28;20389;-73
2021/12/26 07:52:14;;;;;;;5.55;4.03;;;;;;;-146.64;100.00;39436.03;5025374;28;20064;-73
2021/12/26 07:54:39;;;;;;;7.35;3.95;;;;;;;-146.64;100.00;39409.41;5008788;28;20377;-73
2021/12/26 07:57:06;;;;;;;7.55;4.13;;;;;;;-146.64;100.00;39462.63;5032257;28;20026;-73
2021/12/26 07:59:32;;;;;;;5.78;4.13;;;;;;;-146.64;100.00;39470.81;5013899;28;20079;-73
2021/12/26 08:01:58;;;;;;;5.22;3.72;;;;;;;-146.64;100.00;39491.28;5009602;28;20038;-73
2021/12/26 08:04:23;;;;;;;5.75;4.50;;;;;;;-146.64;100.00;39466.72;5011195;28;20075;-73
2021/12/26 08:06:48;;;;;;;7.45;4.55;;;;;;;-146.64;100.00;39479.00;5031289;28;20052;-73
2021/12/26 08:09:14;;;;;;;6.75;4.22;;;;;;;-146.64;100.00;39476.97;5030095;28;20052;-73
2021/12/26 08:11:39;;;;;;;6.75;4.10;;;;;;;-146.64;100.00;39493.34;5014522;28;20029;-73
2021/12/26 08:14:05;;;;;;;11.15;4.15;;;;;;;-146.64;100.00;39483.09;5030682;28;20515;-73
2021/12/26 08:16:30;;;;;;;7.25;4.45;;;;;;;-146.64;100.00;39546.53;5032128;28;20108;-73
2021/12/26 08:18:55;;;;;;;7.07;4.60;;;;;;;-146.64;100.00;39476.97;5013368;28;20434;-73
2021/12/26 08:21:21;;;;;;;10.23;4.20;;;;;;;-146.64;100.00;39507.66;5008883;28;20033;-73
2021/12/26 08:23:46;;;;;;;9.65;4.78;;;;;;;-146.64;100.00;39476.97;5012378;28;20029;-73
2021/12/26 08:26:12;;;;;;;7.50;4.65;;;;;;;-146.64;100.00;39476.97;4994417;28;20401;-73
2021/12/26 08:28:38;;;;;;;8.05;4.65;;;;;;;-146.64;100.00;39464.69;5010417;28;20108;-73
2021/12/26 08:31:03;;;;;;;7.22;4.40;;;;;;;-146.64;100.00;39476.97;5031527;28;20063;-73
2021/12/26 08:33:29;;;;;;;6.28;4.75;;;;;;;-146.64;100.00;39513.81;5030327;28;20555;-74
2021/12/26 08:35:54;;;;;;;8.07;4.43;;;;;;;-146.64;100.00;39493.34;4988357;28;20121;-74
2021/12/26 08:38:22;;;;;;;12.07;4.57;;;;;;;-146.64;100.00;39513.81;4996504;28;20073;-74
2021/12/26 08:40:53;;;;;;;5.38;4.55;;;;;;;-146.64;100.00;39513.81;5014503;28;20032;-74
2021/12/26 08:43:19;;;;;;;13.35;4.05;;;;;;;-146.64;100.00;39487.19;5010977;28;20480;-74
2021/12/26 08:45:45;;;;;;;4.45;3.78;;;;;;;-146.64;100.00;39476.97;4995332;28;20033;-74
2021/12/26 08:48:10;;;;;;;12.35;4.80;;;;;;;-146.64;100.00;39462.63;4993439;28;20022;-74
2021/12/26 08:50:36;;;;;;;9.15;4.53;;;;;;;-146.64;100.00;39481.06;5001882;28;20026;-74
2021/12/26 08:53:03;;;;;;;7.30;4.80;;;;;;;-146.64;100.00;39481.06;5030211;28;20497;-74
2021/12/26 08:55:28;;;;;;;7.72;4.30;;;;;;;-146.64;100.00;39460.59;5021844;28;20049;-74
2021/12/26 08:57:54;;;;;;;7.25;4.68;;;;;;;-146.64;100.00;39464.69;5014618;28;20022;-74
2021/12/26 09:00:21;;;;;;;6.83;4.53;;;;;;;-146.64;100.00;39462.63;5008602;28;20033;-74
2021/12/26 09:02:46;;;;;;;7.78;5.25;;;;;;;-146.64;100.00;39456.50;5015169;28;20692;-74
2021/12/26 09:05:12;;;;;;;7.95;4.55;;;;;;;-146.64;100.00;39458.53;5014016;28;20076;-74
2021/12/26 09:07:37;;;;;;;9.63;4.40;;;;;;;-146.64;100.00;39438.06;5013646;28;20045;-74
2021/12/26 09:10:03;;;;;;;8.10;4.75;;;;;;;-146.64;100.00;39423.75;4995229;28;20033;-74
2021/12/26 09:12:29;;;;;;;10.57;4.68;;;;;;;-146.64;100.00;39448.31;5029067;28;20033;-74
2021/12/26 09:14:54;;;;;;;6.85;4.00;;;;;;;-146.64;100.00;39378.72;4994113;28;20017;-74
2021/12/26 09:17:19;;;;;;;9.88;5.00;;;;;;;-146.64;100.00;39433.97;5001026;28;20044;-74
2021/12/26 09:19:45;;;;;;;8.23;5.40;;;;;;;-146.64;100.00;39403.28;5003545;28;20474;-75
2021/12/26 09:22:13;;;;;;;7.25;4.70;;;;;;;-146.64;100.00;39407.38;4997306;28;20116;-75
2021/12/26 09:24:38;;;;;;;8.82;4.47;;;;;;;-146.64;100.00;39413.50;5030180;28;20033;-75
2021/12/26 09:27:04;;;;;;;6.65;4.63;;;;;;;-146.64;100.00;39391.00;4993160;28;20036;-75
2021/12/26 09:29:31;;;;;;;10.38;4.85;;;;;;;-146.64;100.00;39407.38;5010644;28;20025;-74
2021/12/26 09:31:56;;;;;;;8.15;5.50;;;;;;;-146.64;100.00;39382.81;4998892;28;20513;-75
2021/12/26 09:34:23;;;;;;;8.10;4.45;;;;;;;-146.64;100.00;39413.50;5013471;28;20033;-75
2021/12/26 09:36:49;;;;;;;6.40;4.60;;;;;;;-146.64;100.00;39423.75;5013908;28;20067;-75
2021/12/26 09:39:17;;;;;;;6.85;4.35;;;;;;;-146.64;100.00;39358.25;5029852;28;20037;-75
2021/12/26 09:41:42;;;;;;;8.52;4.68;;;;;;;-146.64;100.00;39386.91;5030302;28;20029;-75
2021/12/26 09:44:08;;;;;;;10.50;4.85;;;;;;;-146.64;100.00;39411.47;5012581;28;20032;-75
2021/12/26 09:46:34;;;;;;;11.70;5.07;;;;;;;-146.64;100.00;39378.72;5012742;28;20033;-75
2021/12/26 09:48:59;;;;;;;12.67;4.77;;;;;;;-146.64;100.00;39407.38;5006542;28;20408;-75
2021/12/26 09:51:26;;;;;;;17.08;5.07;;;;;;;-146.64;100.00;39407.38;5021622;28;20037;-75
2021/12/26 09:53:51;;;;;;;7.07;4.28;;;;;;;-146.64;100.00;39395.09;5012191;28;20080;-75
2021/12/26 09:56:17;;;;;;;8.68;4.80;;;;;;;-146.64;100.00;39370.53;5012499;28;20056;-75
2021/12/26 09:58:54;;;;;;;7.70;4.47;;;;;;;-146.64;100.00;39401.22;5029136;28;20026;-75
2021/12/26 10:01:37;;;;;;;7.88;5.18;;;;;;;-146.64;100.00;39362.34;5007281;28;20497;-75
2021/12/26 10:04:16;;;;;;;5.75;4.25;;;;;;;-146.64;100.00;39399.19;5025277;28;20120;-75
2021/12/26 10:06:41;;;;;;;8.30;4.07;;;;;;;-146.64;100.00;39382.81;5023946;28;20022;-75
2021/12/26 10:09:08;;;;;;;8.10;4.50;;;;;;;-146.64;100.00;39370.53;5004977;28;20053;-75
2021/12/26 10:11:38;;;;;;;7.72;4.72;;;;;;;-146.64;100.00;39382.81;5010690;28;20030;-75
2021/12/26 10:14:06;;;;;;;11.88;5.18;;;;;;;-146.64;100.00;39382.81;5010836;28;20739;-75
2021/12/26 10:16:35;;;;;;;8.20;4.95;;;;;;;-146.64;100.00;39391.00;5000696;28;20034;-75
2021/12/26 10:19:03;;;;;;;6.80;4.75;;;;;;;-146.64;100.00;39395.09;5012371;28;20052;-75
2021/12/26 10:21:32;;;;;;;10.00;5.25;;;;;;;-146.64;100.00;39384.84;5030269;28;20083;-75
2021/12/26 10:24:05;;;;;;;6.30;4.60;;;;;;;-146.64;100.00;39382.81;5005999;28;20030;-75
2021/12/26 10:26:35;;;;;;;11.43;4.70;;;;;;;-146.64;100.00;39397.13;5003941;28;20025;-75
2021/12/26 10:29:09;;;;;;;8.10;4.90;;;;;;;-146.64;100.00;39386.91;5006634;28;20044;-74
2021/12/26 10:31:36;;;;;;;10.48;5.13;;;;;;;-146.64;100.00;39403.28;5022242;28;20033;-74
2021/12/26 10:34:02;;;;;;;8.13;5.18;;;;;;;-146.64;100.00;39397.13;5011987;28;20060;-74
2021/12/26 10:36:27;;;;;;;12.18;5.32;;;;;;;-146.64;100.00;39444.22;5012381;28;20029;-74
2021/12/26 10:39:17;;;;;;;16.20;5.38;;;;;;;-146.64;100.00;39362.34;5016909;28;20049;-74
2021/12/26 10:41:45;;;;;;;9.57;5.93;;;;;;;-146.64;100.00;39370.53;5001454;28;20029;-76
2021/12/26 10:44:35;;;;;;;7.13;4.93;;;;;;;-146.64;100.00;39395.09;5012704;28;20041;-76
2021/12/26 10:47:05;;;;;;;10.45;5.53;;;;;;;-146.64;100.00;39407.38;5030210;28;20036;-74
2021/12/26 10:49:41;;;;;;;10.38;6.10;;;;;;;-146.64;100.00;39345.97;5029982;28;20033;-74
2021/12/26 10:52:12;;;;;;;10.98;5.07;;;;;;;-146.64;100.00;39386.91;4999559;28;20028;-74
2021/12/26 10:54:41;;;;;;;12.95;5.32;;;;;;;-146.64;100.00;39415.56;4993724;28;20021;-73
2021/12/26 10:57:19;;;;;;;9.52;5.00;;;;;;;-146.64;100.00;39429.88;5028407;28;20052;-74
2021/12/26 10:59:46;;;;;;;10.45;5.95;;;;;;;-146.64;100.00;39388.94;4997199;28;20095;-74
2021/12/26 11:02:21;;;;;;;10.50;5.15;;;;;;;-146.64;100.00;39429.88;4996477;28;20540;-74
2021/12/26 11:05:03;;;;;;;10.73;5.72;;;;;;;-146.64;100.00;39401.22;5012977;28;20033;-74
2021/12/26 11:07:30;;;;;;;12.40;5.95;;;;;;;-146.64;100.00;39395.09;5004142;28;20107;-74
2021/12/26 11:10:08;;;;;;;9.68;5.35;;;;;;;-146.64;100.00;39431.94;4999696;28;20033;-73
2021/12/26 11:12:40;;;;;;;15.90;6.45;;;;;;;-146.64;100.00;39431.94;5023933;28;20035;-73